Time;durP1;ratioP1;P1;durP2;ratioP2;P2;SDS_P1;SDS_P2;PMS_P1;PMS_P2;Temp;Humidity;BMP_temperature;BMP_pressure;BME280_temperature;BME280_humidity;BME280_pressure;Samples;Min_cycle;Max_cycle;Signal;HPM_P1;HPM_P2
2023/01/27 00:01:46;;;;;;;13.60;9.90;;;4.50;99.90;;;;;;5074113;28;20407;-71
2023/01/27 00:04:11;;;;;;;12.82;8.93;;;4.60;99.90;;;;;;5074087;28;20041;-71
2023/01/27 00:06:37;;;;;;;13.48;9.07;;;4.60;99.90;;;;;;5073994;28;20040;-71
2023/01/27 00:09:03;;;;;;;14.68;8.88;;;4.60;99.90;;;;;;5073935;28;20066;-71
2023/01/27 00:14:12;;;;;;;15.13;10.10;;;4.50;99.90;;;;;;5074216;28;20048;-71
2023/01/27 00:16:38;;;;;;;16.75;9.85;;;4.60;99.90;;;;;;5073902;28;20485;-71
2023/01/27 00:19:04;;;;;;;16.10;9.90;;;4.60;99.90;;;;;;5073658;28;20045;-71
2023/01/27 00:26:58;;;;;;;14.57;9.38;;;4.50;99.90;;;;;;5073010;28;20040;-71
2023/01/27 00:29:23;;;;;;;14.48;10.05;;;4.60;99.90;;;;;;5073812;28;20036;-71
2023/01/27 00:34:33;;;;;;;14.20;9.70;;;4.50;99.90;;;;;;5073589;28;20044;-71
2023/01/27 00:36:58;;;;;;;12.25;9.55;;;4.60;99.90;;;;;;5073492;28;20044;-71
2023/01/27 00:39:24;;;;;;;13.90;9.50;;;4.50;99.90;;;;;;5073323;28;20094;-71
2023/01/27 00:41:49;;;;;;;12.52;9.32;;;4.50;99.90;;;;;;5073378;28;20037;-71
2023/01/27 00:44:15;;;;;;;13.98;9.15;;;4.50;99.90;;;;;;5073355;28;20032;-71
2023/01/27 00:46:41;;;;;;;11.98;9.50;;;4.50;99.90;;;;;;5073279;28;20048;-71
2023/01/27 00:49:07;;;;;;;11.32;8.00;;;4.50;99.90;;;;;;5075183;28;20047;-71
2023/01/27 00:51:33;;;;;;;11.27;6.60;;;4.50;99.90;;;;;;5073197;28;20090;-71
2023/01/27 00:54:01;;;;;;;9.13;6.85;;;4.50;99.90;;;;;;5073073;28;20044;-71
2023/01/27 00:56:27;;;;;;;7.75;5.60;;;4.50;99.90;;;;;;5073058;28;20040;-71
2023/01/27 00:58:53;;;;;;;9.10;6.28;;;4.50;99.90;;;;;;5074665;28;20043;-71
2023/01/27 01:01:18;;;;;;;8.40;6.13;;;4.50;99.90;;;;;;5072979;28;20090;-71
2023/01/27 01:03:44;;;;;;;7.53;5.35;;;4.50;99.90;;;;;;5072948;28;20044;-71
2023/01/27 01:06:13;;;;;;;8.07;5.57;;;4.50;99.90;;;;;;5072867;28;20063;-71
2023/01/27 01:08:39;;;;;;;8.52;5.75;;;4.50;99.90;;;;;;5072815;28;20501;-71
2023/01/27 01:11:06;;;;;;;8.85;6.28;;;4.50;99.90;;;;;;5072714;28;20120;-71
2023/01/27 01:13:32;;;;;;;8.18;5.72;;;4.50;99.90;;;;;;5072991;28;20055;-71
2023/01/27 01:16:23;;;;;;;8.52;5.97;;;4.50;99.90;;;;;;5072706;28;20044;-71
2023/01/27 01:18:49;;;;;;;9.88;6.30;;;4.60;99.90;;;;;;5072487;28;20060;-71
2023/01/27 01:21:15;;;;;;;9.32;6.80;;;4.60;99.90;;;;;;5055838;28;20033;-71
2023/01/27 01:23:42;;;;;;;9.30;7.60;;;4.50;99.90;;;;;;5072545;28;20102;-71
2023/01/27 01:26:10;;;;;;;9.70;7.10;;;4.60;99.90;;;;;;5073726;28;20040;-71
2023/01/27 01:28:36;;;;;;;9.02;6.80;;;4.50;99.90;;;;;;5072454;28;20055;-71
2023/01/27 01:31:07;;;;;;;9.10;7.40;;;4.60;99.90;;;;;;5072362;28;20051;-71
2023/01/27 01:33:33;;;;;;;8.52;7.30;;;4.60;99.90;;;;;;5072363;28;20059;-71
2023/01/27 01:36:06;;;;;;;8.95;7.63;;;4.50;99.90;;;;;;5072573;28;20040;-71
2023/01/27 01:38:32;;;;;;;12.68;7.10;;;4.60;99.90;;;;;;5055604;28;20048;-71
2023/01/27 01:40:58;;;;;;;8.50;7.00;;;4.60;99.90;;;;;;5072405;28;20039;-71
2023/01/27 01:43:25;;;;;;;10.35;7.75;;;4.50;99.90;;;;;;5072193;28;20048;-71
2023/01/27 01:45:55;;;;;;;8.75;7.70;;;4.60;99.90;;;;;;5072160;28;20090;-71
2023/01/27 01:48:32;;;;;;;7.72;6.80;;;4.50;99.90;;;;;;5072161;28;20059;-71
2023/01/27 01:51:04;;;;;;;9.27;6.65;;;4.60;99.90;;;;;;5071983;28;20048;-71
2023/01/27 01:53:39;;;;;;;8.43;6.70;;;4.60;99.90;;;;;;5072120;28;20048;-71
2023/01/27 01:56:11;;;;;;;10.30;6.45;;;4.60;99.90;;;;;;5072334;28;20076;-71
2023/01/27 01:58:37;;;;;;;7.90;7.07;;;4.60;99.90;;;;;;5071961;28;20087;-71
2023/01/27 02:01:04;;;;;;;10.02;7.13;;;4.60;99.90;;;;;;5072184;28;20040;-71
2023/01/27 02:03:32;;;;;;;9.55;7.00;;;4.50;99.90;;;;;;5072186;28;20119;-71
2023/01/27 02:05:59;;;;;;;9.75;6.90;;;4.60;99.90;;;;;;5071950;28;20044;-71
2023/01/27 02:08:38;;;;;;;10.40;7.20;;;4.60;99.90;;;;;;5071872;28;20040;-71
2023/01/27 02:11:05;;;;;;;9.38;6.18;;;4.60;99.90;;;;;;5071880;28;20051;-71
2023/01/27 02:13:31;;;;;;;8.65;5.80;;;4.50;99.90;;;;;;5055435;28;20076;-71
2023/01/27 02:15:56;;;;;;;7.72;5.32;;;4.60;99.90;;;;;;5071835;28;20543;-71
2023/01/27 02:18:22;;;;;;;7.38;4.88;;;4.60;99.90;;;;;;5071751;28;20098;-71
2023/01/27 02:20:53;;;;;;;8.40;4.57;;;4.60;99.90;;;;;;5071737;28;20040;-71
2023/01/27 02:23:45;;;;;;;6.10;3.70;;;4.60;99.90;;;;;;5071776;28;20048;-71
2023/01/27 02:26:39;;;;;;;6.72;3.88;;;4.60;99.90;;;;;;5071784;28;20085;-71
2023/01/27 02:29:07;;;;;;;7.10;3.45;;;4.60;99.90;;;;;;5070363;28;20091;-71
2023/01/27 02:31:33;;;;;;;5.28;2.90;;;4.60;99.90;;;;;;5071950;28;20524;-71
2023/01/27 02:34:08;;;;;;;4.80;2.60;;;4.60;99.90;;;;;;5071685;28;20045;-71
2023/01/27 02:36:38;;;;;;;5.00;2.40;;;4.60;99.90;;;;;;5073203;28;20108;-71
2023/01/27 02:39:06;;;;;;;5.65;2.55;;;4.60;99.90;;;;;;5071516;28;20040;-71
2023/01/27 02:41:44;;;;;;;4.75;2.55;;;4.60;99.90;;;;;;5071542;28;20497;-71
2023/01/27 02:44:10;;;;;;;5.15;2.35;;;4.60;99.90;;;;;;5071527;28;20051;-71
2023/01/27 02:46:36;;;;;;;5.20;2.33;;;4.60;99.90;;;;;;5071540;28;20036;-71
2023/01/27 02:49:02;;;;;;;5.90;2.42;;;4.60;99.90;;;;;;5072640;28;20541;-71
2023/01/27 02:51:29;;;;;;;5.18;2.05;;;4.60;99.90;;;;;;5075342;28;20044;-71
2023/01/27 02:53:54;;;;;;;5.93;2.35;;;4.60;99.90;;;;;;5076920;28;20041;-71
2023/01/27 02:56:20;;;;;;;4.20;1.67;;;4.60;99.90;;;;;;5075413;28;20040;-71
2023/01/27 02:58:46;;;;;;;3.05;1.80;;;4.60;99.90;;;;;;5075296;28;20048;-71
2023/01/27 03:01:11;;;;;;;2.58;1.50;;;4.60;99.90;;;;;;5075218;28;20037;-71
2023/01/27 03:03:42;;;;;;;2.90;1.55;;;4.60;99.90;;;;;;5075280;28;20040;-71
2023/01/27 03:06:09;;;;;;;3.25;1.50;;;4.60;99.90;;;;;;5075245;28;20044;-71
2023/01/27 03:08:35;;;;;;;3.67;1.30;;;4.60;99.90;;;;;;5075396;28;20153;-71
2023/01/27 03:11:00;;;;;;;3.55;1.50;;;4.60;99.90;;;;;;5075017;28;20520;-71
2023/01/27 03:13:27;;;;;;;2.33;1.20;;;4.60;99.90;;;;;;5075056;28;20044;-71
2023/01/27 03:18:37;;;;;;;5.72;1.60;;;4.60;99.90;;;;;;5074932;28;20083;-71
2023/01/27 03:21:06;;;;;;;3.50;1.20;;;4.60;99.90;;;;;;5074794;28;20064;-71
2023/01/27 03:23:35;;;;;;;4.93;1.40;;;4.70;99.90;;;;;;5074874;28;20123;-71
2023/01/27 03:26:05;;;;;;;4.40;1.20;;;4.60;99.90;;;;;;5074801;28;20039;-71
2023/01/27 03:28:31;;;;;;;4.78;1.35;;;4.60;99.90;;;;;;5074830;28;20074;-71
2023/01/27 03:31:06;;;;;;;3.40;1.25;;;4.60;99.90;;;;;;5074671;28;20036;-71
2023/01/27 03:33:31;;;;;;;4.45;1.40;;;4.60;99.90;;;;;;5074756;28;20054;-71
2023/01/27 03:46:56;;;;;;;2.97;1.30;;;4.60;99.90;;;;;;5074463;28;20072;-71
2023/01/27 03:49:21;;;;;;;4.45;1.35;;;4.50;99.90;;;;;;5074605;28;20072;-71
2023/01/27 03:51:47;;;;;;;2.88;1.40;;;4.60;99.90;;;;;;5074523;28;20425;-71
2023/01/27 03:54:13;;;;;;;5.20;1.45;;;4.60;99.90;;;;;;5074600;28;20041;-71
2023/01/27 03:56:38;;;;;;;5.07;1.30;;;4.50;99.90;;;;;;5075483;28;20412;-71
2023/01/27 03:59:04;;;;;;;4.85;1.48;;;4.50;99.90;;;;;;5074210;28;20040;-71
2023/01/27 04:01:29;;;;;;;1.95;1.10;;;4.50;99.90;;;;;;5073015;28;20044;-71
2023/01/27 04:09:22;;;;;;;2.40;1.50;;;4.50;99.90;;;;;;5074057;28;20131;-71
2023/01/27 04:11:54;;;;;;;2.65;1.50;;;4.50;99.90;;;;;;5074000;28;20041;-71
2023/01/27 04:14:36;;;;;;;2.92;1.60;;;4.50;99.90;;;;;;5075276;28;20528;-71
2023/01/27 04:17:14;;;;;;;5.07;1.20;;;4.50;99.90;;;;;;5057326;28;20052;-71
2023/01/27 04:19:40;;;;;;;4.22;1.40;;;4.50;99.90;;;;;;5073791;28;20119;-71
2023/01/27 04:22:06;;;;;;;4.50;1.83;;;4.50;99.90;;;;;;5075333;28;20549;-71
2023/01/27 04:24:32;;;;;;;5.32;2.28;;;4.50;99.90;;;;;;5073718;28;20409;-71
2023/01/27 04:27:02;;;;;;;3.20;1.70;;;4.50;99.90;;;;;;5073750;28;20040;-71
2023/01/27 04:29:35;;;;;;;3.08;1.35;;;4.50;99.90;;;;;;5073655;28;20063;-71
2023/01/27 04:32:03;;;;;;;2.72;1.25;;;4.40;99.90;;;;;;5073661;28;20040;-71
2023/01/27 04:34:29;;;;;;;2.90;1.42;;;4.40;99.90;;;;;;5073565;28;20074;-71
2023/01/27 04:36:55;;;;;;;4.45;1.50;;;4.50;99.90;;;;;;5073552;28;20052;-71
2023/01/27 04:39:21;;;;;;;4.05;1.40;;;4.40;99.90;;;;;;5073299;28;20408;-71
2023/01/27 04:41:47;;;;;;;2.83;1.35;;;4.50;99.90;;;;;;5073410;28;20037;-71
2023/01/27 04:44:13;;;;;;;3.45;1.65;;;4.40;99.90;;;;;;5073595;28;20045;-71
2023/01/27 04:46:39;;;;;;;4.55;1.70;;;4.40;99.90;;;;;;5073569;28;20037;-71
2023/01/27 04:49:05;;;;;;;3.30;1.33;;;4.40;99.90;;;;;;5073192;28;20090;-71
2023/01/27 04:51:31;;;;;;;3.47;1.30;;;4.40;99.90;;;;;;5073098;28;20043;-71
2023/01/27 04:53:57;;;;;;;3.17;1.60;;;4.40;99.90;;;;;;5073407;28;20045;-71
2023/01/27 04:56:32;;;;;;;4.38;1.80;;;4.40;99.90;;;;;;5073084;28;20451;-71
2023/01/27 04:58:59;;;;;;;4.45;1.73;;;4.40;99.90;;;;;;5073034;28;20041;-71
2023/01/27 05:01:25;;;;;;;4.95;1.80;;;4.40;99.90;;;;;;5072983;28;20037;-71
2023/01/27 05:03:51;;;;;;;4.35;1.73;;;4.40;99.90;;;;;;5073204;28;20109;-71
2023/01/27 05:06:17;;;;;;;3.95;1.58;;;4.40;99.90;;;;;;5072915;28;20040;-71
2023/01/27 05:08:42;;;;;;;3.97;1.80;;;4.40;99.90;;;;;;5072904;28;20123;-71
2023/01/27 05:11:08;;;;;;;4.93;1.60;;;4.40;99.90;;;;;;5072927;28;20048;-71
2023/01/27 05:13:34;;;;;;;6.22;2.00;;;4.30;99.90;;;;;;5072558;28;20086;-71
2023/01/27 05:16:08;;;;;;;3.50;1.40;;;4.40;99.90;;;;;;5073001;28;20170;-71
2023/01/27 05:18:34;;;;;;;6.22;1.77;;;4.40;99.90;;;;;;5072638;28;20077;-71
2023/01/27 05:21:04;;;;;;;3.55;1.63;;;4.40;99.90;;;;;;5072539;28;20412;-71
2023/01/27 05:23:36;;;;;;;5.90;1.92;;;4.40;99.90;;;;;;5055891;28;20060;-71
2023/01/27 05:26:03;;;;;;;5.53;1.80;;;4.40;99.90;;;;;;5074396;28;20059;-71
2023/01/27 05:28:28;;;;;;;4.47;1.65;;;4.40;99.90;;;;;;5072468;28;20047;-71
2023/01/27 05:31:11;;;;;;;4.20;1.55;;;4.40;99.90;;;;;;5072397;28;20040;-71
2023/01/27 05:33:37;;;;;;;4.45;1.33;;;4.40;99.90;;;;;;5055806;28;20098;-71
2023/01/27 05:36:05;;;;;;;6.10;1.60;;;4.30;99.90;;;;;;5072330;28;20456;-71
2023/01/27 05:38:31;;;;;;;4.78;1.63;;;4.40;99.90;;;;;;5072233;28;20036;-71
2023/01/27 05:41:00;;;;;;;5.32;1.88;;;4.30;99.90;;;;;;5073448;28;20127;-71
2023/01/27 05:43:27;;;;;;;4.88;1.35;;;4.40;99.90;;;;;;5072257;28;20043;-71
2023/01/27 05:45:53;;;;;;;3.72;1.60;;;4.40;99.90;;;;;;5072197;28;20048;-71
2023/01/27 05:48:18;;;;;;;3.42;1.50;;;4.40;99.90;;;;;;5072173;28;20036;-71
2023/01/27 05:50:53;;;;;;;3.65;1.88;;;4.40;99.90;;;;;;5071884;28;20135;-71
2023/01/27 05:53:19;;;;;;;3.85;1.48;;;4.40;99.90;;;;;;5072400;28;20511;-71
2023/01/27 05:55:44;;;;;;;4.45;1.63;;;4.30;99.90;;;;;;5072112;28;20044;-71
2023/01/27 05:58:10;;;;;;;4.13;1.75;;;4.30;99.90;;;;;;5071993;28;20161;-71
2023/01/27 06:00:35;;;;;;;4.65;1.80;;;4.40;99.90;;;;;;5072234;28;20071;-71
2023/01/27 06:03:01;;;;;;;3.70;1.67;;;4.40;99.90;;;;;;5072003;28;20033;-71
2023/01/27 06:05:26;;;;;;;7.00;1.60;;;4.30;99.90;;;;;;5071967;28;20493;-71
2023/01/27 06:07:52;;;;;;;4.20;1.73;;;4.30;99.90;;;;;;5071936;28;20049;-71
2023/01/27 06:10:18;;;;;;;5.03;2.20;;;4.30;99.90;;;;;;5072359;28;20041;-71
2023/01/27 06:12:43;;;;;;;4.75;2.22;;;4.30;99.90;;;;;;5071901;28;20425;-71
2023/01/27 06:15:09;;;;;;;4.18;2.17;;;4.30;99.90;;;;;;5072065;28;20044;-71
2023/01/27 06:17:35;;;;;;;6.15;2.20;;;4.30;99.90;;;;;;5072091;28;20040;-71
2023/01/27 06:20:00;;;;;;;7.28;1.90;;;4.30;99.90;;;;;;5071669;28;20539;-71
2023/01/27 06:22:26;;;;;;;3.33;2.20;;;4.30;99.90;;;;;;5071803;28;20048;-71
2023/01/27 06:24:51;;;;;;;5.32;1.98;;;4.30;99.90;;;;;;5071064;28;20049;-71
2023/01/27 06:27:17;;;;;;;4.03;1.90;;;4.30;99.90;;;;;;5071729;28;20047;-71
2023/01/27 06:29:43;;;;;;;4.13;1.90;;;4.30;99.90;;;;;;5071593;28;20505;-71
2023/01/27 06:32:08;;;;;;;4.00;1.95;;;4.30;99.90;;;;;;5071706;28;20052;-71
2023/01/27 06:34:34;;;;;;;6.50;2.00;;;4.30;99.90;;;;;;5071659;28;20048;-71
2023/01/27 06:36:59;;;;;;;5.38;2.10;;;4.30;99.90;;;;;;5071967;28;20070;-71
2023/01/27 06:39:25;;;;;;;6.03;2.33;;;4.30;99.90;;;;;;5071464;28;20545;-71
2023/01/27 06:41:50;;;;;;;8.07;2.60;;;4.20;99.90;;;;;;5071873;28;20052;-71
2023/01/27 06:44:16;;;;;;;5.97;2.38;;;4.30;99.90;;;;;;5071529;28;20040;-71
2023/01/27 06:46:41;;;;;;;9.30;2.55;;;4.30;99.90;;;;;;5071500;28;20036;-71
2023/01/27 06:49:07;;;;;;;4.97;2.58;;;4.20;99.90;;;;;;5071435;28;20080;-71
2023/01/27 06:51:33;;;;;;;6.30;2.67;;;4.30;99.90;;;;;;5071657;28;20093;-71
2023/01/27 06:53:59;;;;;;;8.27;2.92;;;4.20;99.90;;;;;;5071468;28;20408;-71
2023/01/27 06:56:24;;;;;;;6.60;2.85;;;4.30;99.90;;;;;;5071474;28;20044;-71
2023/01/27 06:58:50;;;;;;;4.25;2.13;;;4.30;99.90;;;;;;5071394;28;20485;-71
2023/01/27 07:01:16;;;;;;;7.50;2.00;;;4.20;99.90;;;;;;5071615;28;20036;-71
2023/01/27 07:03:41;;;;;;;5.68;1.92;;;4.30;99.90;;;;;;5072553;28;20401;-71
2023/01/27 07:06:09;;;;;;;4.45;1.80;;;4.30;99.90;;;;;;5071645;28;20090;-71
2023/01/27 07:08:35;;;;;;;4.45;1.98;;;4.20;99.90;;;;;;5071290;28;20513;-71
2023/01/27 07:11:02;;;;;;;4.70;1.48;;;4.20;99.90;;;;;;5071235;28;20067;-71
2023/01/27 07:13:28;;;;;;;4.57;1.60;;;4.20;99.90;;;;;;5071265;28;20053;-71
2023/01/27 07:15:55;;;;;;;5.90;1.98;;;4.20;99.90;;;;;;5071268;28;20045;-71
2023/01/27 07:18:20;;;;;;;5.13;1.90;;;4.20;99.90;;;;;;5072436;28;20128;-71
2023/01/27 07:20:46;;;;;;;5.75;1.35;;;4.20;99.90;;;;;;5071146;28;20071;-71
2023/01/27 07:23:12;;;;;;;5.75;1.45;;;4.20;99.90;;;;;;5071217;28;20037;-70
2023/01/27 07:25:38;;;;;;;5.53;2.00;;;4.20;99.90;;;;;;5071154;28;20040;-71
2023/01/27 07:28:04;;;;;;;6.93;1.60;;;4.20;99.90;;;;;;5071529;28;20052;-71
2023/01/27 07:30:32;;;;;;;6.32;1.40;;;4.20;99.90;;;;;;5071046;28;20116;-71
2023/01/27 07:33:09;;;;;;;6.95;2.35;;;4.20;99.90;;;;;;5072361;28;20506;-71
2023/01/27 07:35:35;;;;;;;6.55;2.10;;;4.20;99.90;;;;;;5073561;28;20063;-71
2023/01/27 07:38:01;;;;;;;5.78;2.00;;;4.20;99.90;;;;;;5075873;28;20068;-71
2023/01/27 07:40:27;;;;;;;5.32;1.80;;;4.20;99.90;;;;;;5074766;28;20442;-71
2023/01/27 07:42:56;;;;;;;7.20;1.67;;;4.20;99.90;;;;;;5074541;28;20087;-71
2023/01/27 07:45:21;;;;;;;7.80;1.50;;;4.20;99.90;;;;;;5074519;28;20051;-71
2023/01/27 07:47:47;;;;;;;5.30;1.58;;;4.20;99.90;;;;;;5075728;28;20045;-70
2023/01/27 07:50:13;;;;;;;8.23;1.77;;;4.20;99.90;;;;;;5074279;28;20076;-70
2023/01/27 07:52:38;;;;;;;4.80;1.52;;;4.20;99.90;;;;;;5074363;28;20063;-70
2023/01/27 07:55:04;;;;;;;5.93;1.45;;;4.20;99.90;;;;;;5074342;28;20082;-70
2023/01/27 07:57:30;;;;;;;4.28;1.80;;;4.20;99.90;;;;;;5074283;28;20045;-70
2023/01/27 07:59:55;;;;;;;7.50;2.13;;;4.20;99.90;;;;;;5074135;28;20041;-70
2023/01/27 08:02:22;;;;;;;4.70;1.40;;;4.20;99.90;;;;;;5074517;28;20036;-70
2023/01/27 08:04:49;;;;;;;7.63;1.90;;;4.20;99.90;;;;;;5075012;28;20072;-70
2023/01/27 08:07:15;;;;;;;5.75;1.65;;;4.20;99.90;;;;;;5074146;28;20047;-70
2023/01/27 08:09:41;;;;;;;6.57;2.15;;;4.20;99.90;;;;;;5074063;28;20044;-71
2023/01/27 08:12:06;;;;;;;6.90;1.40;;;4.20;99.90;;;;;;5074345;28;20119;-71
2023/01/27 08:14:32;;;;;;;7.00;1.55;;;4.20;99.90;;;;;;5074047;28;20489;-71
2023/01/27 08:16:57;;;;;;;8.65;1.60;;;4.20;99.90;;;;;;5073924;28;20086;-71
2023/01/27 08:19:23;;;;;;;5.38;1.70;;;4.20;99.90;;;;;;5073774;28;20067;-71
2023/01/27 08:21:48;;;;;;;5.55;1.40;;;4.30;99.90;;;;;;5074127;28;20045;-71
2023/01/27 08:24:14;;;;;;;7.43;1.60;;;4.20;99.90;;;;;;5073783;28;20090;-71
2023/01/27 08:26:40;;;;;;;7.55;2.03;;;4.30;99.90;;;;;;5073974;28;20130;-71
2023/01/27 08:29:05;;;;;;;6.22;1.60;;;4.30;99.90;;;;;;5073633;28;20493;-71
2023/01/27 08:31:31;;;;;;;6.90;2.45;;;4.30;99.90;;;;;;5073586;28;20036;-70
2023/01/27 08:33:56;;;;;;;5.38;1.65;;;4.30;99.90;;;;;;5056939;28;20044;-70
2023/01/27 08:36:23;;;;;;;9.70;2.03;;;4.30;99.90;;;;;;5073818;28;20091;-71
2023/01/27 08:38:49;;;;;;;7.40;2.15;;;4.30;99.90;;;;;;5073607;28;20068;-71
2023/01/27 08:41:25;;;;;;;4.53;1.77;;;4.30;99.90;;;;;;5073656;28;20539;-71
2023/01/27 08:43:52;;;;;;;6.15;2.15;;;4.30;99.90;;;;;;5073484;28;20512;-71
2023/01/27 08:46:18;;;;;;;4.85;2.20;;;4.30;99.90;;;;;;5074292;28;20044;-71
2023/01/27 08:48:44;;;;;;;6.50;1.85;;;4.30;99.90;;;;;;5073283;28;20044;-71
2023/01/27 08:51:12;;;;;;;6.15;1.63;;;4.40;99.90;;;;;;5072997;28;20082;-71
2023/01/27 08:53:38;;;;;;;5.05;1.90;;;4.30;99.90;;;;;;5073197;28;20041;-71
2023/01/27 08:56:07;;;;;;;6.25;2.00;;;4.30;99.90;;;;;;5073404;28;20105;-71
2023/01/27 08:58:34;;;;;;;10.75;2.70;;;4.30;99.90;;;;;;5073256;28;20036;-71
2023/01/27 09:01:02;;;;;;;5.85;2.13;;;4.30;99.90;;;;;;5072974;28;20033;-71
2023/01/27 09:03:30;;;;;;;5.32;2.05;;;4.30;99.90;;;;;;5073322;28;20123;-71
2023/01/27 09:05:55;;;;;;;5.72;2.50;;;4.40;99.90;;;;;;5072945;28;20044;-71
2023/01/27 09:08:21;;;;;;;6.13;2.72;;;4.30;99.90;;;;;;5072926;28;20047;-71
2023/01/27 09:10:47;;;;;;;7.90;2.45;;;4.40;99.90;;;;;;5072780;28;20044;-71
2023/01/27 09:13:13;;;;;;;6.65;2.60;;;4.30;99.90;;;;;;5073082;28;20048;-71
2023/01/27 09:15:39;;;;;;;7.05;2.80;;;4.30;99.90;;;;;;5072735;28;20513;-71
2023/01/27 09:18:05;;;;;;;5.07;2.47;;;4.40;99.90;;;;;;5072878;28;20086;-71
2023/01/27 09:20:33;;;;;;;7.05;2.80;;;4.40;99.90;;;;;;5073152;28;20437;-71
2023/01/27 09:22:58;;;;;;;5.72;2.60;;;4.40;99.90;;;;;;5072627;28;20134;-71
2023/01/27 09:25:24;;;;;;;8.10;3.13;;;4.40;99.90;;;;;;5055895;28;20082;-71
2023/01/27 09:27:54;;;;;;;7.72;2.85;;;4.50;99.90;;;;;;5072535;28;20036;-71
2023/01/27 09:30:19;;;;;;;9.00;2.63;;;4.50;99.90;;;;;;5074244;28;20033;-71
2023/01/27 09:32:45;;;;;;;6.47;2.72;;;4.50;99.90;;;;;;5072423;28;20043;-71
2023/01/27 09:35:11;;;;;;;6.90;2.80;;;4.60;99.90;;;;;;5072651;28;20206;-71
2023/01/27 09:37:51;;;;;;;11.63;4.35;;;4.60;99.90;;;;;;5072362;28;20546;-71
2023/01/27 09:40:33;;;;;;;7.43;2.88;;;4.60;99.90;;;;;;5072248;28;20070;-71
2023/01/27 09:43:13;;;;;;;8.02;3.03;;;4.70;99.90;;;;;;5072309;28;20098;-71
2023/01/27 09:46:03;;;;;;;6.43;2.78;;;4.70;99.90;;;;;;5072523;28;20044;-71
2023/01/27 09:48:54;;;;;;;9.75;3.35;;;4.80;99.90;;;;;;5072227;28;20044;-71
2023/01/27 09:51:34;;;;;;;4.93;2.60;;;4.80;99.90;;;;;;5072158;28;20120;-71
2023/01/27 09:54:42;;;;;;;6.22;2.50;;;4.80;99.90;;;;;;5072176;28;20040;-71
2023/01/27 09:57:27;;;;;;;7.13;2.92;;;4.80;99.90;;;;;;5058554;28;20052;-71
2023/01/27 10:00:08;;;;;;;5.75;2.45;;;4.80;99.90;;;;;;5071149;28;20128;-71
2023/01/27 10:02:45;;;;;;;7.25;3.00;;;4.80;99.90;;;;;;5072032;28;20090;-71
2023/01/27 10:05:17;;;;;;;5.95;2.58;;;4.90;99.90;;;;;;5055587;28;20063;-71
2023/01/27 10:07:58;;;;;;;5.30;2.70;;;4.90;99.90;;;;;;5071997;28;20037;-71
2023/01/27 10:10:56;;;;;;;4.38;2.35;;;4.90;99.90;;;;;;5072177;28;20048;-71
2023/01/27 10:14:12;;;;;;;4.75;2.42;;;4.90;99.90;;;;;;5068930;28;20131;-71
2023/01/27 10:16:59;;;;;;;5.18;2.40;;;4.90;99.90;;;;;;5054818;28;20048;-71
2023/01/27 10:19:25;;;;;;;6.53;2.47;;;4.90;99.90;;;;;;5073082;28;20044;-71
2023/01/27 10:22:05;;;;;;;5.07;2.50;;;4.80;99.90;;;;;;5072072;28;20115;-71
2023/01/27 10:24:58;;;;;;;6.95;1.83;;;4.90;99.90;;;;;;5072066;28;20374;-71
2023/01/27 10:27:26;;;;;;;5.07;1.95;;;4.90;99.90;;;;;;5071876;28;20044;-71
2023/01/27 10:30:17;;;;;;;5.80;2.17;;;4.80;99.90;;;;;;5071673;28;20044;-71
2023/01/27 10:33:10;;;;;;;4.70;1.65;;;4.90;99.90;;;;;;5071794;28;20044;-71
2023/01/27 10:35:44;;;;;;;8.75;2.08;;;4.90;99.90;;;;;;5071681;28;20044;-71
2023/01/27 10:38:28;;;;;;;7.65;1.70;;;4.80;99.90;;;;;;5073198;28;20036;-71
2023/01/27 10:41:29;;;;;;;3.95;1.80;;;4.80;99.90;;;;;;5071553;28;20048;-71
2023/01/27 10:44:22;;;;;;;5.90;1.67;;;4.80;99.90;;;;;;5071652;28;20045;-71
2023/01/27 10:47:07;;;;;;;;;;;4.80;99.90;;;;;;5073366;28;20044;-71
2023/01/27 10:49:39;;;;;;;3.92;1.60;;;4.70;99.90;;;;;;5071624;28;20125;-71
2023/01/27 10:52:25;;;;;;;3.58;1.58;;;4.70;99.90;;;;;;5071845;28;20055;-71
2023/01/27 10:55:00;;;;;;;3.55;1.60;;;4.70;99.90;;;;;;5071567;28;20047;-71
2023/01/27 10:57:48;;;;;;;4.35;1.48;;;4.70;99.90;;;;;;5071471;28;20405;-71
2023/01/27 11:00:20;;;;;;;2.47;1.33;;;4.80;99.90;;;;;;5071333;28;20075;-71
2023/01/27 11:03:11;;;;;;;4.10;1.42;;;4.70;99.90;;;;;;5071488;28;20040;-71
2023/01/27 11:05:41;;;;;;;2.38;1.20;;;4.80;99.90;;;;;;5072668;28;20037;-71
2023/01/27 11:08:23;;;;;;;5.00;1.23;;;4.80;99.90;;;;;;5071586;28;20063;-71
2023/01/27 11:13:37;;;;;;;2.63;1.30;;;4.80;99.90;;;;;;5075420;28;20048;-71
2023/01/27 11:16:06;;;;;;;2.30;1.20;;;4.80;99.90;;;;;;5075020;28;20119;-71
2023/01/27 11:18:35;;;;;;;2.90;1.42;;;4.70;99.90;;;;;;5074925;28;20056;-71
2023/01/27 11:21:14;;;;;;;2.90;1.20;;;4.70;99.90;;;;;;5075136;28;20040;-71
2023/01/27 11:23:44;;;;;;;5.35;1.70;;;4.70;99.90;;;;;;5076228;28;20072;-71
2023/01/27 11:26:31;;;;;;;2.20;1.40;;;4.70;99.90;;;;;;5074952;28;20075;-71
2023/01/27 11:29:09;;;;;;;2.85;1.40;;;4.70;99.90;;;;;;5058106;28;20139;-71
2023/01/27 11:31:57;;;;;;;1.85;1.42;;;4.70;99.90;;;;;;5074854;28;20048;-71
2023/01/27 11:34:49;;;;;;;2.58;1.38;;;4.70;99.90;;;;;;5074805;28;20115;-71
2023/01/27 11:37:19;;;;;;;1.83;1.17;;;4.70;99.90;;;;;;5067855;28;20471;-71
2023/01/27 11:39:46;;;;;;;2.13;1.60;;;4.70;99.90;;;;;;5074503;28;20075;-71
2023/01/27 11:42:12;;;;;;;6.88;2.38;;;4.70;99.90;;;;;;5074598;28;20120;-71
2023/01/27 11:44:39;;;;;;;2.95;1.60;;;4.70;99.90;;;;;;5074879;28;20036;-71
2023/01/27 11:47:06;;;;;;;2.55;1.40;;;4.70;99.90;;;;;;5076006;28;20037;-71
2023/01/27 11:49:43;;;;;;;2.20;1.25;;;4.70;99.90;;;;;;5075728;28;20440;-71
2023/01/27 11:52:21;;;;;;;2.38;1.38;;;4.70;99.90;;;;;;5075729;28;20075;-71
2023/01/27 11:55:04;;;;;;;2.20;1.40;;;4.80;99.90;;;;;;5074620;28;20041;-71
2023/01/27 11:57:30;;;;;;;;;;;4.70;99.90;;;;;;5074803;28;20448;-71
2023/01/27 12:00:09;;;;;;;1.63;1.42;;;4.70;99.90;;;;;;5074212;28;19921;-71
2023/01/27 12:02:46;;;;;;;1.98;1.60;;;4.70;99.90;;;;;;5074268;28;20076;-71
2023/01/27 12:05:17;;;;;;;2.38;1.50;;;4.80;99.90;;;;;;5074220;28;20040;-70
2023/01/27 12:07:50;;;;;;;2.28;1.60;;;4.70;99.90;;;;;;5074476;28;20128;-70
2023/01/27 12:10:24;;;;;;;;;;;4.80;99.90;;;;;;5074441;28;20076;-70
2023/01/27 12:12:49;;;;;;;2.13;1.52;;;4.70;99.90;;;;;;5074372;28;19923;-70
2023/01/27 12:15:16;;;;;;;3.25;1.40;;;4.70;99.90;;;;;;5075198;28;20411;-70
2023/01/27 12:17:50;;;;;;;4.35;1.67;;;4.80;99.90;;;;;;5073937;28;20044;-70
2023/01/27 12:20:18;;;;;;;;;;;4.80;99.90;;;;;;5074230;28;20415;-70
2023/01/27 12:22:48;;;;;;;1.48;1.33;;;4.70;99.90;;;;;;5072876;28;19920;-70
2023/01/27 12:25:18;;;;;;;2.05;1.70;;;4.80;99.90;;;;;;5074069;28;20032;-70
2023/01/27 12:27:51;;;;;;;4.47;2.30;;;4.80;99.90;;;;;;5075358;28;20045;-70
2023/01/27 12:30:27;;;;;;;3.22;2.30;;;4.80;99.90;;;;;;5073919;28;20045;-70
2023/01/27 12:32:53;;;;;;;1.80;1.60;;;4.80;99.90;;;;;;5073747;28;20040;-70
2023/01/27 12:35:24;;;;;;;3.00;1.70;;;4.70;99.90;;;;;;5073599;28;20052;-70
2023/01/27 12:38:05;;;;;;;2.50;1.90;;;4.80;99.90;;;;;;5073861;28;20052;-70
2023/01/27 12:40:32;;;;;;;2.13;1.55;;;4.80;99.90;;;;;;5073514;28;20048;-70
2023/01/27 12:43:01;;;;;;;1.60;1.17;;;4.80;99.90;;;;;;5073698;28;20045;-70
2023/01/27 12:45:37;;;;;;;1.25;1.02;;;4.80;99.90;;;;;;5073371;28;20032;-70
2023/01/27 12:48:08;;;;;;;1.73;1.23;;;4.80;99.90;;;;;;5074609;28;20402;-70
2023/01/27 12:50:55;;;;;;;2.30;1.23;;;4.80;99.90;;;;;;5073082;28;20575;-70
2023/01/27 12:53:26;;;;;;;1.45;1.35;;;4.80;99.90;;;;;;5073314;28;20041;-71
2023/01/27 12:55:57;;;;;;;2.88;1.45;;;4.80;99.90;;;;;;5073330;28;20047;-71
2023/01/27 12:58:39;;;;;;;3.45;1.80;;;4.80;99.90;;;;;;5073314;28;20585;-71
2023/01/27 13:01:30;;;;;;;2.75;1.48;;;4.80;99.90;;;;;;5073065;28;20454;-71
2023/01/27 13:04:17;;;;;;;2.28;1.30;;;4.80;99.90;;;;;;5073266;28;20070;-71
2023/01/27 13:06:50;;;;;;;1.90;1.40;;;4.80;99.90;;;;;;5073006;28;20489;-71
2023/01/27 13:09:32;;;;;;;2.93;1.20;;;4.80;99.90;;;;;;5073149;28;20105;-71
2023/01/27 13:12:01;;;;;;;2.75;1.70;;;4.80;99.90;;;;;;5072895;28;20485;-71
2023/01/27 13:14:29;;;;;;;3.47;1.70;;;4.80;99.90;;;;;;5072808;28;20059;-71
2023/01/27 13:16:59;;;;;;;1.80;1.30;;;4.80;99.90;;;;;;5072777;28;20055;-71
2023/01/27 13:19:45;;;;;;;2.45;1.23;;;4.80;99.90;;;;;;5072592;28;20044;-71
2023/01/27 13:22:18;;;;;;;1.63;0.93;;;4.80;99.90;;;;;;5072744;28;20033;-71
2023/01/27 13:24:48;;;;;;;3.05;1.00;;;4.90;99.90;;;;;;5072747;28;20096;-71
2023/01/27 13:27:18;;;;;;;1.23;1.00;;;4.90;99.90;;;;;;5072677;28;20489;-71
2023/01/27 13:29:53;;;;;;;1.15;0.98;;;4.80;99.90;;;;;;5072505;28;20036;-71
2023/01/27 13:32:27;;;;;;;1.60;1.40;;;4.80;99.90;;;;;;5072327;28;20047;-71
2023/01/27 13:35:20;;;;;;;2.13;1.20;;;4.80;99.90;;;;;;5072727;28;20485;-71
2023/01/27 13:37:53;;;;;;;1.50;1.30;;;4.80;99.90;;;;;;5072437;28;20558;-71
2023/01/27 13:40:20;;;;;;;1.35;0.98;;;4.80;99.90;;;;;;5072251;28;20044;-71
2023/01/27 13:42:54;;;;;;;1.17;0.80;;;4.70;99.90;;;;;;5072288;28;20040;-71
2023/01/27 13:45:22;;;;;;;1.58;0.80;;;4.80;99.90;;;;;;5072528;28;20042;-71
2023/01/27 13:48:03;;;;;;;1.05;0.82;;;4.70;99.90;;;;;;5072240;28;20036;-71